createdAt,value
2022-08-05T00:00:54.742Z,64.95
2022-08-05T00:03:20.941Z,65.01
2022-08-05T00:06:05.260Z,65.07
2022-08-05T00:08:36.178Z,65.14
2022-08-05T00:11:02.530Z,65.12
2022-08-05T00:13:38.180Z,65.10
2022-08-05T00:16:05.842Z,65.19
2022-08-05T00:18:34.647Z,65.20
2022-08-05T00:21:00.787Z,65.15
2022-08-05T00:23:30.840Z,65.22
2022-08-05T00:26:12.673Z,65.24
2022-08-05T00:28:38.824Z,65.06
2022-08-05T00:31:07.628Z,65.14
2022-08-05T00:34:54.549Z,65.01
2022-08-05T00:37:09.801Z,64.92
2022-08-05T00:39:06.430Z,64.83
2022-08-05T00:41:54.913Z,64.64
2022-08-05T00:44:21.939Z,64.08
2022-08-05T00:46:54.171Z,63.77
2022-08-05T00:49:32.830Z,63.55
2022-08-05T00:52:10.672Z,63.33
2022-08-05T00:54:38.165Z,63.26
2022-08-05T00:57:04.295Z,63.30
2022-08-05T00:59:34.569Z,62.95
2022-08-05T01:02:10.883Z,62.98
2022-08-05T01:04:37.553Z,62.98
2022-08-05T01:07:08.362Z,62.98
2022-08-05T01:09:40.031Z,63.08
2022-08-05T01:12:18.227Z,63.10
2022-08-05T01:14:45.101Z,62.93
2022-08-05T01:17:11.249Z,63.06
2022-08-05T01:20:01.915Z,63.19
2022-08-05T01:22:24.472Z,63.31
2022-08-05T01:24:54.332Z,63.56
2022-08-05T01:27:22.253Z,63.55
2022-08-05T01:29:48.480Z,63.80
2022-08-05T01:32:18.588Z,63.95
2022-08-05T01:34:44.933Z,63.99
2022-08-05T01:37:24.677Z,64.03
2022-08-05T01:39:51.586Z,64.12
2022-08-05T01:42:22.439Z,64.05
2022-08-05T01:44:54.092Z,64.38
2022-08-05T01:47:21.055Z,64.33
2022-08-05T01:50:01.796Z,64.32
2022-08-05T01:52:29.102Z,64.38
2022-08-05T01:54:56.490Z,64.50
2022-08-05T01:58:10.131Z,64.65
2022-08-05T02:00:12.049Z,64.70
2022-08-05T02:02:38.473Z,64.77
2022-08-05T02:05:13.025Z,64.81
2022-08-05T02:07:41.623Z,64.71
2022-08-05T02:10:17.242Z,64.96
2022-08-05T02:12:43.710Z,64.90
2022-08-05T02:15:19.622Z,65.06
2022-08-05T02:18:27.948Z,65.06
2022-08-05T02:20:32.200Z,65.17
2022-08-05T02:23:05.331Z,65.36
2022-08-05T02:25:35.983Z,65.45
2022-08-05T02:28:16.494Z,65.65
2022-08-05T02:30:56.542Z,65.66
2022-08-05T02:33:24.361Z,65.88
2022-08-05T02:36:01.970Z,65.96
2022-08-05T02:38:28.681Z,65.86
2022-08-05T02:41:14.737Z,65.85
2022-08-05T02:44:02.710Z,66.08
2022-08-05T02:46:30.434Z,65.98
2022-08-05T02:48:56.668Z,65.66
2022-08-05T02:51:48.444Z,65.48
2022-08-05T02:54:08.925Z,65.35
2022-08-05T02:56:55.039Z,65.28
2022-08-05T02:59:21.200Z,65.14
2022-08-05T03:01:53.406Z,65.09
2022-08-05T03:04:19.572Z,65.00
2022-08-05T03:06:55.668Z,64.86
2022-08-05T03:09:36.164Z,65.22
2022-08-05T03:12:03.747Z,65.19
2022-08-05T03:14:29.869Z,65.07
2022-08-05T03:16:56.794Z,65.12
2022-08-05T03:19:34.230Z,64.95
2022-08-05T03:22:02.218Z,64.86
2022-08-05T03:24:31.009Z,64.90
2022-08-05T03:26:57.144Z,64.85
2022-08-05T03:29:23.481Z,65.30
2022-08-05T03:31:57.377Z,65.60
2022-08-05T03:34:26.530Z,65.80
2022-08-05T03:36:53.181Z,65.98
2022-08-05T03:39:20.217Z,66.03
2022-08-05T03:41:53.474Z,66.37
2022-08-05T03:44:23.038Z,66.42
2022-08-05T03:46:49.154Z,66.53
2022-08-05T03:49:15.401Z,66.90
2022-08-05T03:52:36.628Z,67.04
2022-08-05T03:55:52.151Z,67.47
2022-08-05T03:57:16.033Z,67.72
2022-08-05T03:59:47.656Z,68.02
2022-08-05T04:02:37.900Z,68.51
2022-08-05T04:05:05.582Z,68.88
2022-08-05T04:07:46.736Z,69.28
2022-08-05T04:10:22.556Z,69.32
2022-08-05T04:12:48.718Z,69.55
2022-08-05T04:15:15.589Z,69.72
2022-08-05T04:17:56.216Z,69.93
2022-08-05T04:20:26.154Z,69.65
2022-08-05T04:22:52.287Z,69.64
2022-08-05T04:25:18.414Z,69.57
2022-08-05T04:27:57.309Z,69.52
2022-08-05T04:30:25.088Z,69.37
2022-08-05T04:32:52.778Z,69.51
2022-08-05T04:35:19.917Z,69.59
2022-08-05T04:38:01.727Z,69.52
2022-08-05T04:40:32.367Z,69.93
2022-08-05T04:42:58.524Z,70.00
2022-08-05T04:45:47.832Z,69.99
2022-08-05T04:48:18.533Z,70.04
2022-08-05T04:51:02.632Z,69.94
2022-08-05T04:53:36.061Z,70.04
2022-08-05T04:56:33.174Z,70.07
2022-08-05T04:58:48.335Z,70.13
2022-08-05T05:01:14.578Z,70.35
2022-08-05T05:04:00.002Z,70.45
2022-08-05T05:06:39.418Z,70.73
2022-08-05T05:09:13.281Z,70.84
2022-08-05T05:11:48.570Z,71.02
2022-08-05T05:14:31.225Z,71.11
2022-08-05T05:16:57.922Z,71.08
2022-08-05T05:19:26.623Z,71.07
2022-08-05T05:22:03.639Z,71.31
2022-08-05T05:24:56.804Z,71.26
2022-08-05T05:27:24.649Z,71.23
2022-08-05T05:30:08.146Z,71.20
2022-08-05T05:32:41.927Z,71.24
2022-08-05T05:35:08.727Z,71.46
2022-08-05T05:37:53.709Z,71.88
2022-08-05T05:40:20.994Z,72.21
2022-08-05T05:42:52.346Z,72.87
2022-08-05T05:45:18.915Z,73.05
2022-08-05T05:48:06.140Z,73.29
2022-08-05T05:50:32.693Z,73.56
2022-08-05T05:53:00.273Z,73.66
2022-08-05T05:55:51.812Z,73.80
2022-08-05T05:58:12.533Z,74.33
2022-08-05T06:00:40.443Z,74.49
2022-08-05T06:03:40.772Z,74.64
2022-08-05T06:05:58.189Z,74.73
2022-08-05T06:08:31.687Z,74.86
2022-08-05T06:10:59.515Z,74.66
2022-08-05T06:13:26.397Z,74.93
2022-08-05T06:16:31.451Z,74.85
2022-08-05T06:18:39.440Z,74.71
2022-08-05T06:21:05.625Z,74.49
2022-08-05T06:23:43.929Z,74.41
2022-08-05T06:26:13.698Z,74.21
2022-08-05T06:28:47.257Z,74.07
2022-08-05T06:31:17.736Z,74.12
2022-08-05T06:34:07.262Z,73.95
2022-08-05T06:36:57.657Z,73.80
2022-08-05T06:39:16.848Z,73.73
2022-08-05T06:41:43.522Z,73.56
2022-08-05T06:44:09.912Z,73.47
2022-08-05T06:46:36.046Z,73.24
2022-08-05T06:49:02.617Z,73.15
2022-08-05T06:51:33.753Z,73.19
2022-08-05T06:53:59.958Z,73.13
2022-08-05T06:56:27.040Z,73.14
2022-08-05T06:58:53.359Z,72.93
2022-08-05T07:01:20.964Z,72.76
2022-08-05T07:03:47.418Z,72.49
2022-08-05T07:06:14.322Z,72.49
2022-08-05T07:08:41.872Z,72.54
2022-08-05T07:11:15.234Z,72.51
2022-08-05T07:13:58.082Z,72.52
2022-08-05T07:17:59.043Z,72.59
2022-08-05T07:19:12.209Z,72.67
2022-08-05T07:22:00.607Z,72.64
2022-08-05T07:24:28.663Z,72.75
2022-08-05T07:26:56.116Z,72.96
2022-08-05T07:29:25.424Z,73.31
2022-08-05T07:32:08.371Z,73.60
2022-08-05T07:34:35.248Z,73.86
2022-08-05T07:37:03.338Z,74.00
2022-08-05T07:40:26.588Z,73.97
2022-08-05T07:42:15.740Z,74.19
2022-08-05T07:44:42.522Z,74.54
2022-08-05T07:47:13.471Z,74.71
2022-08-05T07:49:43.475Z,74.95
2022-08-05T07:52:20.351Z,75.09
2022-08-05T07:54:50.005Z,75.43
2022-08-05T07:57:52.248Z,75.95
2022-08-05T08:00:02.347Z,76.17
2022-08-05T08:02:31.182Z,76.40
2022-08-05T08:05:14.724Z,76.55
2022-08-05T08:07:59.655Z,76.79
2022-08-05T08:10:26.802Z,76.89
2022-08-05T08:12:52.931Z,77.25
2022-08-05T08:15:51.286Z,77.25
2022-08-05T08:18:13.776Z,77.48
2022-08-05T08:20:43.429Z,77.43
2022-08-05T08:24:02.807Z,77.68
2022-08-05T08:26:00.069Z,77.78
2022-08-05T08:28:35.539Z,77.92
2022-08-05T08:33:51.717Z,78.63
2022-08-05T08:36:38.800Z,78.94
2022-08-05T08:39:05.509Z,79.26
2022-08-05T08:41:52.215Z,79.38
2022-08-05T08:45:22.939Z,79.35
2022-08-05T08:47:48.093Z,79.50
2022-08-05T08:50:22.973Z,79.61
2022-08-05T08:52:47.199Z,79.58
2022-08-05T08:55:19.521Z,79.73
2022-08-05T08:57:58.686Z,79.73
2022-08-05T09:00:24.867Z,79.91
2022-08-05T09:02:52.388Z,79.91
2022-08-05T09:05:18.564Z,80.01
2022-08-05T09:08:04.668Z,80.21
2022-08-05T09:10:30.809Z,80.34
2022-08-05T09:13:04.545Z,80.47
2022-08-05T09:15:31.492Z,80.68
2022-08-05T09:18:02.994Z,80.87
2022-08-05T09:20:37.338Z,80.87
2022-08-05T09:23:05.207Z,80.80
2022-08-05T09:26:01.504Z,80.97
2022-08-05T09:28:20.990Z,81.02
2022-08-05T09:30:47.455Z,80.95
2022-08-05T09:33:17.199Z,81.04
2022-08-05T09:35:43.772Z,81.11
2022-08-05T09:38:16.906Z,80.92
2022-08-05T09:40:52.033Z,80.92
2022-08-05T09:43:19.046Z,80.83
2022-08-05T09:46:06.617Z,81.07
2022-08-05T09:48:32.451Z,80.95
2022-08-05T09:50:58.594Z,80.99
2022-08-05T09:53:54.681Z,81.04
2022-08-05T09:56:13.530Z,81.13
2022-08-05T09:58:41.886Z,81.12
2022-08-05T10:01:14.561Z,81.22
2022-08-05T10:03:58.665Z,81.03
2022-08-05T10:06:25.836Z,80.94
2022-08-05T10:08:55.342Z,81.00
2022-08-05T10:11:21.853Z,80.84
2022-08-05T10:13:49.310Z,80.74
2022-08-05T10:16:15.658Z,80.60
2022-08-05T10:18:47.965Z,80.55
2022-08-05T10:21:16.322Z,80.72
2022-08-05T10:24:00.133Z,80.75
2022-08-05T10:26:32.424Z,80.44
2022-08-05T10:28:59.995Z,80.31
2022-08-05T10:32:55.491Z,80.17
2022-08-05T10:34:12.376Z,80.13
2022-08-05T10:36:39.715Z,80.00
2022-08-05T10:39:11.807Z,79.91
2022-08-05T10:41:45.353Z,79.93
2022-08-05T10:44:13.365Z,79.83
2022-08-05T10:46:39.498Z,79.72
2022-08-05T10:49:09.856Z,79.69
2022-08-05T10:51:36.428Z,79.48
2022-08-05T10:54:32.676Z,79.30
2022-08-05T10:57:00.832Z,79.33
2022-08-05T11:00:03.195Z,79.11
2022-08-05T11:02:14.289Z,78.95
2022-08-05T11:04:59.110Z,78.81
2022-08-05T11:07:32.750Z,78.57
2022-08-05T11:10:12.609Z,78.70
2022-08-05T11:12:41.275Z,78.24
2022-08-05T11:15:19.445Z,78.26
2022-08-05T11:17:57.499Z,78.10
2022-08-05T11:20:26.721Z,78.05
2022-08-05T11:22:58.016Z,77.96
2022-08-05T11:26:05.145Z,78.07
2022-08-05T11:28:17.219Z,77.94
2022-08-05T11:30:47.877Z,77.70
2022-08-05T11:33:21.284Z,77.53
2022-08-05T11:36:02.764Z,77.34
2022-08-05T11:38:45.425Z,76.95
2022-08-05T11:41:34.349Z,77.25
2022-08-05T11:44:05.614Z,77.05
2022-08-05T11:46:34.148Z,76.88
2022-08-05T11:49:01.143Z,76.69
2022-08-05T11:51:44.207Z,76.46
2022-08-05T11:54:14.066Z,76.25
2022-08-05T11:56:40.965Z,76.01
2022-08-05T11:59:13.566Z,75.80
2022-08-05T12:01:40.163Z,75.61
2022-08-05T12:04:06.306Z,75.52
2022-08-05T12:06:32.458Z,75.05
2022-08-05T12:08:59.404Z,74.87
2022-08-05T12:11:28.423Z,74.63
2022-08-05T12:14:06.177Z,74.17
2022-08-05T12:16:33.291Z,74.03
2022-08-05T12:19:04.736Z,73.68
2022-08-05T12:21:34.398Z,73.39
2022-08-05T12:24:07.111Z,73.01
2022-08-05T12:26:33.608Z,72.79
2022-08-05T12:29:01.412Z,72.56
2022-08-05T12:31:32.654Z,72.17
2022-08-05T12:34:07.627Z,71.65
2022-08-05T12:36:33.782Z,71.15
2022-08-05T12:39:01.105Z,70.82
2022-08-05T12:41:34.177Z,70.71
2022-08-05T12:44:00.839Z,70.59
2022-08-05T12:46:29.265Z,69.93
2022-08-05T12:48:56.020Z,69.35
2022-08-05T12:52:13.514Z,69.03
2022-08-05T12:54:14.739Z,68.95
2022-08-05T12:56:43.172Z,68.78
2022-08-05T12:59:11.384Z,67.66
2022-08-05T13:02:01.963Z,67.09
2022-08-05T13:04:26.388Z,66.54
2022-08-05T13:06:53.288Z,65.95
2022-08-05T13:09:28.643Z,65.50
2022-08-05T13:12:03.114Z,64.92
2022-08-05T13:14:36.115Z,64.64
2022-08-05T13:17:02.890Z,64.12
2022-08-05T13:19:52.090Z,63.70
2022-08-05T13:22:28.446Z,62.97
2022-08-05T13:24:57.390Z,62.50
2022-08-05T13:27:37.327Z,62.01
2022-08-05T13:30:32.879Z,61.46
2022-08-05T13:32:51.104Z,61.08
2022-08-05T13:35:22.288Z,60.61
2022-08-05T13:37:57.383Z,60.00
2022-08-05T13:40:42.368Z,59.80
2022-08-05T13:43:22.168Z,59.48
2022-08-05T13:45:48.538Z,59.52
2022-08-05T13:48:58.358Z,59.35
2022-08-05T13:51:03.147Z,59.12
2022-08-05T13:53:29.283Z,58.67
2022-08-05T13:56:01.980Z,58.90
2022-08-05T13:58:30.432Z,58.62
2022-08-05T14:00:57.286Z,58.61
2022-08-05T14:03:23.919Z,58.50
2022-08-05T14:06:26.349Z,58.83
2022-08-05T14:08:36.573Z,58.99
2022-08-05T14:11:20.538Z,58.66
2022-08-05T14:13:48.014Z,58.20
2022-08-05T14:16:16.976Z,57.79
2022-08-05T14:18:45.303Z,57.95
2022-08-05T14:22:07.372Z,57.79
2022-08-05T14:23:57.629Z,57.26
2022-08-05T14:26:38.626Z,57.58
2022-08-05T14:29:16.324Z,56.73
2022-08-05T14:32:02.950Z,56.23
2022-08-05T14:34:29.090Z,55.50
2022-08-05T14:37:01.748Z,55.23
2022-08-05T14:39:27.933Z,55.02
2022-08-05T14:42:19.485Z,54.99
2022-08-05T14:44:41.465Z,54.76
2022-08-05T14:47:07.753Z,54.63
2022-08-05T14:49:56.768Z,54.71
2022-08-05T14:52:42.800Z,54.73
2022-08-05T14:55:07.354Z,54.92
2022-08-05T14:57:34.027Z,55.11
2022-08-05T15:00:20.019Z,55.32
2022-08-05T15:02:46.346Z,55.78
2022-08-05T15:05:13.526Z,56.07
2022-08-05T15:08:09.154Z,56.31
2022-08-05T15:10:28.743Z,57.23
2022-08-05T15:13:00.816Z,57.68
2022-08-05T15:15:54.250Z,57.91
2022-08-05T15:18:14.756Z,57.49
2022-08-05T15:20:43.481Z,57.07
2022-08-05T15:23:12.179Z,57.11
2022-08-05T15:25:51.285Z,56.71
2022-08-05T15:28:19.285Z,56.58
2022-08-05T15:30:53.095Z,56.29
2022-08-05T15:33:56.903Z,56.30
2022-08-05T15:36:05.793Z,55.96
2022-08-05T15:38:43.246Z,55.94
2022-08-05T15:41:22.822Z,55.53
2022-08-05T15:43:50.297Z,55.46
2022-08-05T15:46:16.907Z,55.19
2022-08-05T15:48:52.493Z,54.82
2022-08-05T15:52:04.393Z,54.45
2022-08-05T15:54:14.994Z,54.42
2022-08-05T15:56:41.983Z,53.67
2022-08-05T15:59:08.144Z,53.00
2022-08-05T16:01:39.370Z,52.20
2022-08-05T16:04:06.211Z,51.86
2022-08-05T16:06:36.511Z,51.64
2022-08-05T16:09:02.877Z,51.19
2022-08-05T16:11:39.903Z,50.87
2022-08-05T16:14:09.393Z,50.66
2022-08-05T16:16:35.557Z,49.94
2022-08-05T16:19:01.682Z,48.87
2022-08-05T16:21:59.370Z,47.90
2022-08-05T16:24:40.460Z,47.38
2022-08-05T16:27:00.516Z,46.84
2022-08-05T16:29:26.747Z,46.57
2022-08-05T16:31:56.357Z,46.39
2022-08-05T16:34:23.756Z,45.46
2022-08-05T16:36:50.177Z,45.36
2022-08-05T16:39:18.668Z,44.75
2022-08-05T16:42:14.562Z,43.85
2022-08-05T16:44:33.082Z,43.69
2022-08-05T16:46:59.214Z,43.94
2022-08-05T16:49:25.350Z,44.07
2022-08-05T16:51:54.987Z,44.41
2022-08-05T16:54:29.001Z,44.78
2022-08-05T16:56:58.951Z,44.69
2022-08-05T16:59:25.090Z,43.47
2022-08-05T17:01:56.224Z,42.66
2022-08-05T17:04:23.669Z,42.54
2022-08-05T17:06:53.040Z,42.94
2022-08-05T17:09:19.827Z,41.20
2022-08-05T17:11:48.208Z,39.07
2022-08-05T17:14:34.230Z,38.63
2022-08-05T17:17:00.875Z,37.22
2022-08-05T17:19:28.786Z,37.03
2022-08-05T17:21:56.731Z,36.76
2022-08-05T17:24:35.154Z,36.69
2022-08-05T17:27:08.509Z,36.70
2022-08-05T17:29:40.994Z,36.25
2022-08-05T17:32:08.452Z,35.86
2022-08-05T17:34:37.714Z,35.12
2022-08-05T17:37:04.658Z,34.26
2022-08-05T17:39:51.170Z,33.91
2022-08-05T17:42:28.442Z,34.06
2022-08-05T17:44:56.150Z,34.59
2022-08-05T17:47:22.714Z,35.02
2022-08-05T17:49:52.039Z,35.01
2022-08-05T17:52:27.647Z,35.26
2022-08-05T17:54:53.999Z,35.55
2022-08-05T17:57:21.595Z,35.81
2022-08-05T17:59:52.799Z,35.44
2022-08-05T18:02:30.830Z,35.46
2022-08-05T18:04:57.491Z,35.87
2022-08-05T18:07:24.945Z,35.97
2022-08-05T18:10:08.824Z,35.78
2022-08-05T18:12:36.688Z,36.10
2022-08-05T18:15:03.562Z,36.31
2022-08-05T18:18:00.131Z,36.42
2022-08-05T18:20:17.077Z,36.20
2022-08-05T18:22:54.153Z,36.11
2022-08-05T18:25:21.158Z,36.03
2022-08-05T18:27:51.957Z,35.97
2022-08-05T18:30:18.913Z,35.65
2022-08-05T18:32:53.700Z,35.75
2022-08-05T18:35:49.636Z,35.79
2022-08-05T18:38:12.864Z,35.92
2022-08-05T18:41:53.902Z,36.03
2022-08-05T18:43:31.514Z,36.44
2022-08-05T18:46:03.932Z,36.46
2022-08-05T18:48:31.180Z,36.83
2022-08-05T18:51:49.597Z,37.22
2022-08-05T18:53:50.470Z,37.51
2022-08-05T18:56:16.801Z,37.72
2022-08-05T18:58:47.996Z,38.04
2022-08-05T19:01:19.039Z,38.17
2022-08-05T19:03:59.673Z,38.57
2022-08-05T19:06:34.031Z,38.72
2022-08-05T19:09:04.062Z,38.90
2022-08-05T19:11:37.124Z,39.56
2022-08-05T19:14:53.356Z,40.03
2022-08-05T19:17:02.537Z,40.20
2022-08-05T19:19:32.696Z,40.63
2022-08-05T19:22:00.226Z,40.74
2022-08-05T19:24:34.415Z,41.22
2022-08-05T19:27:01.275Z,41.55
2022-08-05T19:29:35.992Z,41.84
2022-08-05T19:32:02.730Z,42.08
2022-08-05T19:34:30.619Z,42.21
2022-08-05T19:36:56.752Z,42.41
2022-08-05T19:39:22.949Z,42.63
2022-08-05T19:42:07.627Z,42.84
2022-08-05T19:44:44.588Z,43.00
2022-08-05T19:47:11.494Z,43.18
2022-08-05T19:49:41.536Z,43.39
2022-08-05T19:52:13.278Z,43.62
2022-08-05T19:54:54.890Z,43.82
2022-08-05T19:57:47.413Z,43.92
2022-08-05T20:00:07.153Z,43.99
2022-08-05T20:02:33.308Z,44.01
2022-08-05T20:05:04.727Z,44.18
2022-08-05T20:07:47.182Z,44.34
2022-08-05T20:10:15.087Z,44.63
2022-08-05T20:12:47.597Z,44.54
2022-08-05T20:15:14.614Z,44.64
2022-08-05T20:17:40.747Z,44.97
2022-08-05T20:20:10.996Z,45.01
2022-08-05T20:22:37.351Z,45.10
2022-08-05T20:25:07.676Z,45.16
2022-08-05T20:27:41.580Z,45.15
2022-08-05T20:30:08.304Z,45.29
2022-08-05T20:32:34.437Z,45.22
2022-08-05T20:35:02.337Z,45.49
2022-08-05T20:38:06.385Z,45.67
2022-08-05T20:40:14.706Z,46.03
2022-08-05T20:42:44.096Z,46.09
2022-08-05T20:45:10.241Z,46.33
2022-08-05T20:47:40.122Z,46.44
2022-08-05T20:50:07.520Z,46.40
2022-08-05T20:52:33.776Z,46.39
2022-08-05T20:55:55.097Z,46.89
2022-08-05T20:57:46.811Z,47.08
2022-08-05T21:00:41.431Z,47.19
2022-08-05T21:03:01.667Z,47.29
2022-08-05T21:05:38.027Z,47.49
2022-08-05T21:08:13.980Z,47.40
2022-08-05T21:10:40.121Z,47.64
2022-08-05T21:13:25.924Z,47.60
2022-08-05T21:15:52.786Z,47.69
2022-08-05T21:18:18.919Z,47.64
2022-08-05T21:20:45.064Z,47.83
2022-08-05T21:23:12.602Z,48.14
2022-08-05T21:25:40.287Z,48.24
2022-08-05T21:28:06.675Z,48.38
2022-08-05T21:30:32.837Z,48.38
2022-08-05T21:32:58.987Z,48.68
2022-08-05T21:35:29.922Z,48.79
2022-08-05T21:37:56.662Z,48.78
2022-08-05T21:40:23.102Z,49.23
2022-08-05T21:42:51.977Z,49.36
2022-08-05T21:45:24.864Z,49.68
2022-08-05T21:48:06.346Z,49.70
2022-08-05T21:50:34.101Z,49.90
2022-08-05T21:53:04.348Z,49.97
2022-08-05T21:55:43.061Z,50.03
2022-08-05T21:58:20.668Z,50.22
2022-08-05T22:00:57.125Z,50.29
2022-08-05T22:03:51.923Z,50.53
2022-08-05T22:06:09.580Z,50.47
2022-08-05T22:08:35.749Z,50.50
2022-08-05T22:11:01.893Z,50.92
2022-08-05T22:14:06.587Z,51.07
2022-08-05T22:16:39.506Z,51.42
2022-08-05T22:19:57.044Z,51.50
2022-08-05T22:21:51.296Z,51.71
2022-08-05T22:24:40.883Z,51.59
2022-08-05T22:27:06.698Z,51.78
2022-08-05T22:29:33.228Z,51.91
2022-08-05T22:32:02.909Z,51.94
2022-08-05T22:34:30.075Z,51.99
2022-08-05T22:36:56.356Z,52.10
2022-08-05T22:39:25.864Z,52.36
2022-08-05T22:42:09.810Z,52.24
2022-08-05T22:44:39.104Z,52.48
2022-08-05T22:47:05.970Z,52.44
2022-08-05T22:50:20.259Z,52.91
2022-08-05T22:52:30.265Z,53.15
2022-08-05T22:54:58.872Z,53.51
2022-08-05T22:57:25.508Z,53.32
2022-08-05T22:59:54.327Z,53.27
2022-08-05T23:02:29.494Z,53.38
2022-08-05T23:04:56.338Z,53.45
2022-08-05T23:07:22.581Z,53.38
2022-08-05T23:09:57.198Z,53.52
2022-08-05T23:12:28.475Z,53.62
2022-08-05T23:14:54.945Z,54.11
2022-08-05T23:17:24.372Z,53.97
2022-08-05T23:19:59.186Z,54.12
2022-08-05T23:22:27.506Z,54.06
2022-08-05T23:24:53.930Z,54.11
2022-08-05T23:27:20.086Z,54.21
2022-08-05T23:29:48.768Z,54.45
2022-08-05T23:32:16.852Z,54.48
2022-08-05T23:34:48.750Z,54.68
2022-08-05T23:37:14.881Z,54.56
2022-08-05T23:39:53.286Z,54.70
2022-08-05T23:42:23.598Z,54.56
2022-08-05T23:44:55.598Z,54.80
2022-08-05T23:47:21.767Z,54.84
2022-08-05T23:49:52.115Z,54.83
2022-08-05T23:52:21.942Z,55.16
2022-08-05T23:54:51.517Z,55.42
2022-08-05T23:57:17.673Z,55.17
